Time;durP1;ratioP1;P1;durP2;ratioP2;P2;SDS_P1;SDS_P2;PMS_P1;PMS_P2;Temp;Humidity;BMP_temperature;BMP_pressure;BME280_temperature;BME280_humidity;BME280_pressure;Samples;Min_cycle;Max_cycle;Signal;HPM_P1;HPM_P2
2023/05/28 00:02:00;;;;;;;10.80;4.72;;;;;;;19.52;42.14;101943.75;6191217;23;20029;-62
2023/05/28 00:04:28;;;;;;;11.88;4.63;;;;;;;19.50;42.05;101952.97;6191516;23;20148;-62
2023/05/28 00:06:56;;;;;;;12.60;5.00;;;;;;;19.47;42.13;101948.03;6190379;23;20052;-62
2023/05/28 00:09:24;;;;;;;11.07;5.13;;;;;;;19.45;42.11;101947.47;6191162;23;20493;-62
2023/05/28 00:11:51;;;;;;;9.75;4.93;;;;;;;19.36;42.21;101935.38;6189366;23;20028;-62
2023/05/28 00:14:19;;;;;;;12.45;5.30;;;;;;;19.40;42.16;101938.41;6191632;23;20025;-62
2023/05/28 00:16:50;;;;;;;12.80;5.65;;;;;;;19.36;42.28;101931.81;6191225;23;20029;-62
2023/05/28 00:19:19;;;;;;;14.45;5.32;;;;;;;19.33;42.40;101933.16;6191387;23;20025;-62
2023/05/28 00:21:47;;;;;;;12.57;5.18;;;;;;;19.31;42.36;101935.31;6191654;23;20032;-62
2023/05/28 00:24:15;;;;;;;11.77;5.68;;;;;;;19.30;42.34;101935.56;6192314;23;20029;-63
2023/05/28 00:26:42;;;;;;;10.82;5.50;;;;;;;19.28;42.61;101933.09;6189113;23;20028;-62
2023/05/28 00:29:10;;;;;;;11.35;5.20;;;;;;;19.24;42.63;101925.66;6191383;23;20394;-62
2023/05/28 00:31:38;;;;;;;13.13;5.35;;;;;;;19.22;42.69;101928.66;6191369;23;20032;-62
2023/05/28 00:34:07;;;;;;;11.07;5.57;;;;;;;19.19;42.56;101927.25;6192439;23;20021;-62
2023/05/28 00:36:35;;;;;;;10.25;5.15;;;;;;;19.18;42.48;101919.31;6190602;23;20039;-62
2023/05/28 00:39:04;;;;;;;9.93;5.32;;;;;;;19.14;42.62;101919.00;6191304;23;20032;-63
2023/05/28 00:41:35;;;;;;;12.43;5.60;;;;;;;19.14;42.71;101915.47;6189161;23;20087;-62
2023/05/28 00:44:03;;;;;;;15.13;5.88;;;;;;;19.11;42.71;101924.13;6190820;23;20029;-62
2023/05/28 00:46:31;;;;;;;9.57;5.60;;;;;;;19.04;42.53;101918.91;6190524;23;20025;-62
2023/05/28 00:48:59;;;;;;;17.13;5.53;;;;;;;19.05;42.57;101922.44;6191950;23;20025;-62
2023/05/28 00:51:29;;;;;;;12.77;5.65;;;;;;;19.03;42.92;101921.88;6190730;23;20496;-61
2023/05/28 00:53:57;;;;;;;12.15;5.45;;;;;;;19.01;42.85;101924.84;6192017;23;20051;-62
2023/05/28 00:56:26;;;;;;;8.75;5.75;;;;;;;18.99;42.88;101927.00;6189580;23;20029;-62
2023/05/28 00:58:55;;;;;;;11.93;5.88;;;;;;;18.98;42.92;101927.25;6191750;23;20056;-62
2023/05/28 01:01:26;;;;;;;13.57;5.03;;;;;;;18.95;42.67;101925.03;6191269;23;20024;-62
2023/05/28 01:03:54;;;;;;;14.95;6.65;;;;;;;18.91;42.96;101918.44;6193282;23;20092;-62
2023/05/28 01:06:22;;;;;;;11.75;5.70;;;;;;;18.93;42.93;101933.47;6192788;23;20544;-62
2023/05/28 01:08:52;;;;;;;14.38;6.20;;;;;;;18.91;42.82;101927.44;6192939;23;20036;-62
2023/05/28 01:11:21;;;;;;;14.88;5.85;;;;;;;18.89;42.93;101931.50;6190955;23;20095;-62
2023/05/28 01:13:49;;;;;;;14.15;7.00;;;;;;;18.87;43.14;101930.91;6193557;23;20025;-62
2023/05/28 01:16:17;;;;;;;16.17;5.88;;;;;;;18.83;43.27;101927.88;6192664;23;20024;-62
2023/05/28 01:18:45;;;;;;;15.55;6.22;;;;;;;18.81;43.19;101927.28;6191713;23;20036;-61
2023/05/28 01:21:14;;;;;;;17.17;7.18;;;;;;;18.80;43.46;101921.03;6190713;23;20048;-63
2023/05/28 01:23:45;;;;;;;15.77;7.13;;;;;;;18.78;43.51;101925.91;6191986;23;20051;-62
2023/05/28 01:26:14;;;;;;;14.60;6.75;;;;;;;18.76;43.63;101925.31;6189510;23;20029;-62
2023/05/28 01:28:45;;;;;;;18.73;7.47;;;;;;;18.71;43.57;101922.53;6191871;23;20029;-62
2023/05/28 01:31:13;;;;;;;14.77;7.45;;;;;;;18.72;43.61;101926.06;6190924;23;20039;-62
2023/05/28 01:33:42;;;;;;;14.98;7.15;;;;;;;18.71;43.63;101922.53;6191471;23;20394;-62
2023/05/28 01:36:13;;;;;;;15.27;7.47;;;;;;;18.70;43.62;101922.78;6191412;23;20028;-62
2023/05/28 01:38:43;;;;;;;14.85;6.53;;;;;;;18.68;43.57;101927.63;6193214;23;20071;-62
2023/05/28 01:41:14;;;;;;;16.35;8.32;;;;;;;18.66;43.85;101933.34;6190490;23;20049;-62
2023/05/28 01:43:43;;;;;;;19.17;7.45;;;;;;;18.63;43.90;101931.09;6192618;23;20028;-61
2023/05/28 01:46:12;;;;;;;12.98;7.22;;;;;;;18.63;43.97;101938.47;6191563;23;20024;-62
2023/05/28 01:48:40;;;;;;;15.77;7.20;;;;;;;18.59;44.09;101926.38;6192614;23;20025;-62
2023/05/28 01:51:08;;;;;;;15.95;7.22;;;;;;;18.50;44.19;101917.81;6192276;23;20032;-62
2023/05/28 01:53:36;;;;;;;14.93;8.10;;;;;;;18.57;44.39;101928.53;6192424;23;20029;-62
2023/05/28 01:56:04;;;;;;;14.00;6.57;;;;;;;18.54;44.35;101930.69;6192008;23;20625;-62
2023/05/28 01:58:33;;;;;;;15.43;6.72;;;;;;;18.52;44.32;101937.44;6193516;23;20025;-62
2023/05/28 02:01:17;;;;;;;16.20;7.30;;;;;;;18.50;44.14;101931.41;6192854;23;20044;-62
2023/05/28 02:03:45;;;;;;;14.43;7.07;;;;;;;18.47;44.28;101927.28;6194620;23;20045;-61
2023/05/28 02:06:13;;;;;;;14.30;7.45;;;;;;;18.45;44.58;101929.44;6192747;23;20025;-62
2023/05/28 02:08:41;;;;;;;12.90;6.78;;;;;;;18.42;44.22;101927.22;6194803;23;20056;-62
2023/05/28 02:11:08;;;;;;;10.98;5.40;;;;;;;18.40;44.30;101921.19;6189812;23;20025;-62
2023/05/28 02:13:39;;;;;;;13.13;6.50;;;;;;;18.38;44.82;101927.94;6192828;23;20025;-62
2023/05/28 02:16:07;;;;;;;16.52;6.65;;;;;;;18.36;44.45;101924.66;6191090;23;20432;-62
2023/05/28 02:18:37;;;;;;;18.33;7.15;;;;;;;18.34;44.62;101924.91;6194085;23;20025;-61
2023/05/28 02:21:06;;;;;;;12.55;5.85;;;;;;;18.33;44.65;101923.25;6193609;23;20029;-61
2023/05/28 02:23:33;;;;;;;10.82;5.75;;;;;;;18.29;44.65;101911.22;6193791;23;20021;-62
2023/05/28 02:26:02;;;;;;;15.35;5.47;;;;;;;18.30;44.43;101909.31;6189830;23;20478;-61
2023/05/28 02:28:30;;;;;;;15.95;6.30;;;;;;;18.28;44.64;101915.00;6192012;23;20052;-61
2023/05/28 02:30:59;;;;;;;12.30;5.93;;;;;;;18.26;44.78;101911.72;6191715;23;20025;-61
2023/05/28 02:33:27;;;;;;;13.57;5.25;;;;;;;18.26;44.79;101913.59;6192473;23;20039;-61
2023/05/28 02:35:56;;;;;;;9.95;5.00;;;;;;;18.23;44.62;101911.38;6190627;23;20088;-64
2023/05/28 02:38:23;;;;;;;13.23;5.15;;;;;;;18.21;44.81;101908.91;6192752;23;20092;-62
2023/05/28 02:40:51;;;;;;;10.32;4.93;;;;;;;18.19;44.69;101905.59;6191791;23;20076;-62
2023/05/28 02:43:19;;;;;;;10.55;5.43;;;;;;;18.18;44.76;101902.06;6194244;23;20035;-63
2023/05/28 02:45:47;;;;;;;12.57;5.40;;;;;;;18.17;44.75;101905.03;6192840;23;20032;-62
2023/05/28 02:48:16;;;;;;;10.32;4.97;;;;;;;18.15;44.73;101905.28;6193688;23;20025;-62
2023/05/28 02:50:44;;;;;;;13.65;5.72;;;;;;;18.14;44.80;101898.19;6191348;23;20021;-62
2023/05/28 02:53:11;;;;;;;10.73;5.18;;;;;;;18.12;44.61;101904.94;6192023;23;20064;-62
2023/05/28 02:55:39;;;;;;;14.88;5.50;;;;;;;18.12;44.76;101902.22;6189795;23;20029;-62
2023/05/28 02:58:07;;;;;;;8.85;5.20;;;;;;;18.09;44.72;101906.25;6192397;23;20052;-63
2023/05/28 03:00:35;;;;;;;14.13;5.25;;;;;;;18.08;44.79;101909.22;6193051;23;20033;-62
2023/05/28 03:03:03;;;;;;;13.65;6.07;;;;;;;18.06;44.95;101911.34;6192920;23;20035;-63
2023/05/28 03:05:32;;;;;;;10.63;5.35;;;;;;;18.03;44.79;101907.22;6191815;23;20032;-62
2023/05/28 03:08:00;;;;;;;13.48;5.28;;;;;;;18.01;44.81;101912.09;6192981;23;20040;-62
2023/05/28 03:10:28;;;;;;;13.88;5.43;;;;;;;18.00;44.98;101913.16;6192302;23;20021;-62
2023/05/28 03:12:55;;;;;;;11.85;5.15;;;;;;;18.00;44.94;101906.91;6192386;23;20028;-63
2023/05/28 03:15:26;;;;;;;8.25;4.60;;;;;;;17.98;44.86;101915.31;6190686;23;20029;-63
2023/05/28 03:17:54;;;;;;;8.43;4.60;;;;;;;17.96;44.99;101919.34;6191621;23;20052;-64
2023/05/28 03:20:23;;;;;;;9.50;4.53;;;;;;;17.95;45.18;101912.25;6190091;23;20025;-62
2023/05/28 03:22:56;;;;;;;15.75;5.60;;;;;;;17.93;45.13;101915.22;6190366;23;20032;-63
2023/05/28 03:25:24;;;;;;;13.02;5.20;;;;;;;17.92;45.15;101901.88;6188416;23;20104;-62
2023/05/28 03:27:52;;;;;;;10.07;4.57;;;;;;;17.91;45.10;101908.38;6190578;23;20031;-62
2023/05/28 03:30:21;;;;;;;9.18;4.90;;;;;;;17.88;45.07;101912.41;6189627;23;20028;-63
2023/05/28 03:32:49;;;;;;;9.93;4.63;;;;;;;17.87;45.16;101914.31;6191368;23;20487;-62
2023/05/28 03:35:17;;;;;;;10.95;5.30;;;;;;;17.86;45.30;101911.81;6192404;23;20079;-62
2023/05/28 03:37:45;;;;;;;11.35;5.93;;;;;;;17.83;45.21;101915.84;6190538;23;20029;-62
2023/05/28 03:40:15;;;;;;;10.43;4.70;;;;;;;17.81;45.33;101909.84;6189655;23;20048;-62
2023/05/28 03:42:42;;;;;;;10.50;5.30;;;;;;;17.79;45.36;101914.69;6190865;23;20025;-61
2023/05/28 03:45:10;;;;;;;11.10;4.78;;;;;;;17.77;45.45;101914.09;6190151;23;20036;-63
2023/05/28 03:47:38;;;;;;;6.07;3.72;;;;;;;17.74;45.26;101911.06;6191046;23;20056;-62
2023/05/28 03:50:07;;;;;;;11.10;4.47;;;;;;;17.73;45.50;101910.22;6190981;23;20029;-62
2023/05/28 03:52:35;;;;;;;12.55;4.50;;;;;;;17.71;45.38;101927.84;6191463;23;20024;-63
2023/05/28 03:55:03;;;;;;;11.95;4.72;;;;;;;17.66;45.72;101922.31;6190011;23;20025;-61
2023/05/28 03:57:32;;;;;;;11.68;5.15;;;;;;;17.65;45.61;101932.34;6191840;23;20025;-63
2023/05/28 04:00:00;;;;;;;9.70;4.20;;;;;;;17.64;45.60;101938.00;6188562;23;20140;-63
2023/05/28 04:02:28;;;;;;;10.93;5.60;;;;;;;17.61;45.56;101931.16;6190221;23;20029;-63
2023/05/28 04:04:55;;;;;;;12.35;4.55;;;;;;;17.61;45.53;101931.16;6189220;23;20029;-60
2023/05/28 04:07:23;;;;;;;11.07;4.60;;;;;;;17.59;45.67;101938.75;6189692;23;20028;-63
2023/05/28 04:09:51;;;;;;;8.80;5.05;;;;;;;17.57;45.77;101927.28;6189826;23;20025;-62
2023/05/28 04:12:19;;;;;;;11.98;5.50;;;;;;;17.56;45.72;101936.50;6189422;23;20028;-63
2023/05/28 04:14:48;;;;;;;10.27;4.57;;;;;;;17.52;45.87;101927.19;6189642;23;20029;-62
2023/05/28 04:17:17;;;;;;;10.75;4.95;;;;;;;17.52;45.74;101938.06;6189238;23;20071;-64
2023/05/28 04:19:45;;;;;;;12.18;4.70;;;;;;;17.50;45.82;101932.84;6189798;23;20025;-63
2023/05/28 04:22:13;;;;;;;8.40;4.63;;;;;;;17.48;45.83;101937.72;6190014;23;20025;-63
2023/05/28 04:24:40;;;;;;;11.25;4.95;;;;;;;17.47;46.00;101935.22;6189923;23;20056;-63
2023/05/28 04:27:09;;;;;;;11.07;4.80;;;;;;;17.45;46.03;101938.19;6188684;23;20025;-63
2023/05/28 04:29:36;;;;;;;11.05;4.47;;;;;;;17.44;45.88;101938.44;6189200;23;20087;-63
2023/05/28 04:32:08;;;;;;;10.15;5.43;;;;;;;17.42;46.02;101944.13;6189480;23;20025;-63
2023/05/28 04:34:40;;;;;;;10.32;4.60;;;;;;;17.42;46.01;101941.41;6191404;23;20029;-63
2023/05/28 04:37:08;;;;;;;16.30;4.25;;;;;;;17.41;46.02;101937.03;6191896;23;20029;-63
2023/05/28 04:39:37;;;;;;;12.27;5.65;;;;;;;17.41;45.97;101939.75;6193429;23;20152;-63
2023/05/28 04:42:07;;;;;;;12.18;5.35;;;;;;;17.39;46.00;101939.16;6191132;23;20048;-63
2023/05/28 04:44:35;;;;;;;11.93;4.57;;;;;;;17.41;45.98;101941.63;6193444;23;20077;-63
2023/05/28 04:47:03;;;;;;;12.65;4.90;;;;;;;17.39;46.12;101946.47;6194100;23;20032;-64
2023/05/28 04:49:33;;;;;;;10.73;4.40;;;;;;;17.37;46.22;101946.72;6194894;23;20065;-63
2023/05/28 04:52:01;;;;;;;8.77;4.68;;;;;;;17.36;46.28;101945.06;6188636;23;20359;-63
2023/05/28 04:54:29;;;;;;;10.52;5.05;;;;;;;17.36;46.19;101953.22;6189404;23;20028;-64
2023/05/28 04:56:56;;;;;;;10.38;4.78;;;;;;;17.34;46.37;101952.63;6187375;23;20211;-64
2023/05/28 04:59:25;;;;;;;12.35;5.28;;;;;;;17.35;46.54;101958.91;6190043;23;20079;-64
2023/05/28 05:01:52;;;;;;;10.77;4.55;;;;;;;17.34;46.51;101958.06;6187358;23;20053;-64
2023/05/28 05:04:20;;;;;;;8.77;4.30;;;;;;;17.34;46.53;101966.22;6188894;23;20032;-64
2023/05/28 05:06:49;;;;;;;13.13;4.50;;;;;;;17.35;46.21;101956.19;6189250;23;20035;-65
2023/05/28 05:09:19;;;;;;;11.60;5.30;;;;;;;17.35;46.35;101950.75;6190186;23;20029;-64
2023/05/28 05:11:47;;;;;;;9.52;4.45;;;;;;;17.36;46.13;101949.69;6189053;23;20419;-64
2023/05/28 05:14:15;;;;;;;9.68;4.70;;;;;;;17.37;45.91;101954.06;6188568;23;20033;-64
2023/05/28 05:16:42;;;;;;;13.35;4.70;;;;;;;17.41;45.97;101949.78;6189112;23;20056;-64
2023/05/28 05:19:10;;;;;;;10.85;4.25;;;;;;;17.43;45.92;101944.94;6190527;23;20025;-64
2023/05/28 05:21:38;;;;;;;12.25;5.20;;;;;;;17.44;45.79;101944.69;6189557;23;20033;-64
2023/05/28 05:24:08;;;;;;;11.40;3.85;;;;;;;17.47;46.06;101951.53;6189946;23;20407;-63
2023/05/28 05:26:35;;;;;;;13.23;4.50;;;;;;;17.48;46.16;101958.63;6186333;23;20576;-64
2023/05/28 05:29:03;;;;;;;7.53;3.92;;;;;;;17.49;46.02;101963.81;6187311;23;20035;-66
2023/05/28 05:31:31;;;;;;;8.75;4.22;;;;;;;17.51;46.15;101961.69;6186868;23;20087;-65
2023/05/28 05:33:59;;;;;;;14.63;4.57;;;;;;;17.52;46.22;101968.78;6188983;23;20074;-64
2023/05/28 05:36:27;;;;;;;9.43;5.13;;;;;;;17.53;46.24;101956.84;6188519;23;20029;-64
2023/05/28 05:38:54;;;;;;;9.55;3.75;;;;;;;17.46;46.29;101950.72;6189510;23;20032;-64
2023/05/28 05:41:23;;;;;;;12.65;5.07;;;;;;;17.55;46.40;101962.03;6187152;23;20048;-67
2023/05/28 05:43:51;;;;;;;11.35;5.00;;;;;;;17.56;46.46;101963.69;6188188;23;20028;-65
2023/05/28 05:46:19;;;;;;;10.73;4.88;;;;;;;17.57;46.47;101962.63;6187109;23;20029;-67
2023/05/28 05:48:47;;;;;;;12.85;4.22;;;;;;;17.56;46.60;101964.50;6187416;23;20044;-65
2023/05/28 05:51:18;;;;;;;14.90;5.45;;;;;;;17.58;46.62;101972.44;6185478;23;20079;-65
2023/05/28 05:53:46;;;;;;;8.70;4.45;;;;;;;17.58;46.60;101965.09;6188040;23;20029;-64
2023/05/28 05:56:13;;;;;;;9.32;4.25;;;;;;;17.60;46.68;101966.75;6188398;23;20028;-62
2023/05/28 05:58:43;;;;;;;7.60;3.85;;;;;;;17.60;46.68;101970.28;6192512;23;20025;-63
2023/05/28 06:01:10;;;;;;;11.27;4.03;;;;;;;17.62;46.77;101972.78;6190854;23;20021;-64
2023/05/28 06:03:38;;;;;;;9.82;4.30;;;;;;;17.63;46.81;101975.25;6192870;23;20040;-65
2023/05/28 06:06:07;;;;;;;10.95;4.80;;;;;;;17.65;46.76;101986.72;6191036;23;20033;-62
2023/05/28 06:08:35;;;;;;;8.93;3.92;;;;;;;17.67;46.71;101975.63;6192917;23;20056;-65
2023/05/28 06:11:03;;;;;;;11.95;5.00;;;;;;;17.68;46.85;101969.13;6189366;23;20546;-63
2023/05/28 06:13:31;;;;;;;11.52;4.50;;;;;;;17.70;46.92;101975.16;6191727;23;20328;-66
2023/05/28 06:16:00;;;;;;;11.18;4.07;;;;;;;17.70;46.98;101981.41;6189975;23;20052;-66
2023/05/28 06:18:28;;;;;;;11.73;4.97;;;;;;;17.73;47.00;101982.81;6192408;23;20029;-63
2023/05/28 06:20:56;;;;;;;11.90;4.80;;;;;;;17.70;47.08;101972.44;6192281;23;20036;-64
2023/05/28 06:23:24;;;;;;;11.43;3.95;;;;;;;17.76;47.02;101985.06;6192641;23;20025;-63
2023/05/28 06:25:52;;;;;;;8.90;3.92;;;;;;;17.75;46.94;101972.53;6190532;23;20033;-62
2023/05/28 06:28:20;;;;;;;10.80;3.95;;;;;;;17.81;47.15;101985.97;6192998;23;20080;-63
2023/05/28 06:30:48;;;;;;;10.80;4.53;;;;;;;17.83;47.06;101981.13;6191145;23;20021;-63
2023/05/28 06:33:18;;;;;;;11.98;4.40;;;;;;;17.85;47.46;101980.88;6190822;23;20100;-64
2023/05/28 06:35:46;;;;;;;10.75;4.93;;;;;;;17.86;47.20;101977.91;6190139;23;20064;-63
2023/05/28 06:38:13;;;;;;;12.02;4.75;;;;;;;17.88;47.10;101983.13;6189670;23;20025;-63
2023/05/28 06:40:41;;;;;;;10.38;4.38;;;;;;;17.89;47.25;101976.59;6186072;23;20029;-63
2023/05/28 06:43:09;;;;;;;10.73;4.13;;;;;;;17.91;47.38;101976.38;6190335;23;20332;-64
2023/05/28 06:45:40;;;;;;;10.10;4.78;;;;;;;17.93;47.31;101977.78;6189842;23;20064;-63
2023/05/28 06:48:08;;;;;;;10.23;4.40;;;;;;;17.94;47.38;101968.53;6189834;23;20032;-66
2023/05/28 06:50:37;;;;;;;10.98;4.47;;;;;;;17.96;47.41;101969.13;6188389;23;20029;-65
2023/05/28 06:53:05;;;;;;;11.93;4.07;;;;;;;17.98;47.32;101975.16;6190243;23;20082;-64
2023/05/28 06:55:33;;;;;;;10.85;4.50;;;;;;;17.98;47.36;101969.72;6188154;23;20451;-66
2023/05/28 06:58:01;;;;;;;12.18;4.80;;;;;;;18.02;47.43;101975.50;6189278;23;20025;-66
2023/05/28 07:00:29;;;;;;;9.23;4.00;;;;;;;18.03;47.53;101967.09;6189188;23;20467;-66
2023/05/28 07:02:57;;;;;;;11.07;4.55;;;;;;;18.05;47.55;101972.28;6189626;23;20032;-66
2023/05/28 07:05:25;;;;;;;10.32;4.32;;;;;;;18.07;47.26;101965.53;6190816;23;20415;-64
2023/05/28 07:07:54;;;;;;;8.70;4.63;;;;;;;18.09;47.72;101977.00;6190738;23;20033;-65
2023/05/28 07:10:22;;;;;;;10.13;4.55;;;;;;;18.10;47.69;101977.81;6188080;23;20035;-66
2023/05/28 07:12:50;;;;;;;11.32;4.80;;;;;;;18.12;47.74;101983.84;6189663;23;20048;-65
2023/05/28 07:15:18;;;;;;;15.32;4.35;;;;;;;18.11;47.77;101976.75;6189001;23;20079;-65
2023/05/28 07:17:46;;;;;;;10.13;4.40;;;;;;;18.15;47.65;101983.34;6188734;23;20031;-65
2023/05/28 07:20:14;;;;;;;12.77;4.47;;;;;;;18.17;47.81;101983.94;6187749;23;20044;-61
2023/05/28 07:22:41;;;;;;;12.10;4.70;;;;;;;18.19;47.72;101984.50;6189850;23;20031;-65
2023/05/28 07:25:11;;;;;;;9.25;4.15;;;;;;;18.20;47.72;101978.81;6189778;23;20035;-63
2023/05/28 07:27:39;;;;;;;12.57;4.78;;;;;;;18.22;47.71;101986.75;6192118;23;20100;-65
2023/05/28 07:30:08;;;;;;;7.40;4.20;;;;;;;18.23;47.84;101979.41;6188752;23;20205;-64
2023/05/28 07:32:37;;;;;;;8.88;4.10;;;;;;;18.25;47.64;101983.53;6190542;23;20025;-62
2023/05/28 07:35:06;;;;;;;7.82;3.58;;;;;;;18.26;47.62;101982.47;6191851;23;20029;-64
2023/05/28 07:37:34;;;;;;;9.05;3.78;;;;;;;18.27;47.80;101981.38;6191836;23;20025;-64
2023/05/28 07:40:02;;;;;;;20.40;5.53;;;;;;;18.27;47.86;101978.66;6185487;23;20025;-64
2023/05/28 07:42:32;;;;;;;10.75;4.00;;;;;;;18.30;47.80;101983.63;6188150;23;20024;-64
2023/05/28 07:44:59;;;;;;;9.43;4.55;;;;;;;18.30;47.91;101980.91;6186483;23;20467;-64
2023/05/28 07:47:27;;;;;;;12.75;4.10;;;;;;;18.32;47.91;101992.38;6188248;23;20080;-64
2023/05/28 07:49:55;;;;;;;8.73;4.05;;;;;;;18.34;47.95;101983.97;6187683;23;20039;-63
2023/05/28 07:52:23;;;;;;;13.23;4.38;;;;;;;18.35;47.79;101977.44;6188025;23;20029;-65
2023/05/28 07:54:51;;;;;;;11.75;4.18;;;;;;;18.36;48.03;101981.81;6191234;23;20029;-62
2023/05/28 07:57:19;;;;;;;9.75;4.05;;;;;;;18.37;47.95;101986.19;6186545;23;20029;-62
2023/05/28 07:59:48;;;;;;;10.50;4.22;;;;;;;18.38;47.91;101975.06;6188796;23;20029;-62
2023/05/28 08:02:16;;;;;;;8.50;3.78;;;;;;;18.37;48.10;101973.41;6188384;23;20032;-62
2023/05/28 08:04:44;;;;;;;11.43;4.00;;;;;;;18.40;47.94;101974.81;6190166;23;20028;-62
2023/05/28 08:07:12;;;;;;;8.70;3.80;;;;;;;18.42;48.26;101980.84;6188392;23;20328;-61
2023/05/28 08:09:41;;;;;;;8.88;4.53;;;;;;;18.43;48.38;101986.03;6186770;23;20036;-62
2023/05/28 08:12:09;;;;;;;10.55;4.55;;;;;;;18.47;48.31;101980.91;6186958;23;20402;-62
2023/05/28 08:14:37;;;;;;;7.88;3.67;;;;;;;18.48;48.30;101977.94;6189314;23;20029;-61
2023/05/28 08:17:06;;;;;;;9.80;3.67;;;;;;;18.51;48.34;101979.34;6188405;23;20032;-63
2023/05/28 08:19:34;;;;;;;9.38;3.80;;;;;;;18.53;48.59;101979.94;6188875;23;20025;-63
2023/05/28 08:22:02;;;;;;;10.95;3.60;;;;;;;18.55;48.49;101977.78;6186649;23;20028;-63
2023/05/28 08:24:30;;;;;;;8.77;3.50;;;;;;;18.58;48.26;101980.00;6188194;23;20055;-63
2023/05/28 08:26:58;;;;;;;11.07;4.07;;;;;;;18.60;48.30;101974.31;6185956;23;20025;-63
2023/05/28 08:29:26;;;;;;;10.77;3.85;;;;;;;18.62;48.29;101970.31;6187721;23;20029;-63
2023/05/28 08:31:54;;;;;;;10.27;4.00;;;;;;;18.65;48.39;101960.81;6187911;23;20349;-62
2023/05/28 08:34:23;;;;;;;11.30;4.28;;;;;;;18.66;48.22;101966.00;6191028;23;20029;-63
2023/05/28 08:36:51;;;;;;;10.88;4.00;;;;;;;18.68;48.24;101958.41;6191107;23;20383;-62
2023/05/28 08:39:20;;;;;;;11.60;4.07;;;;;;;18.71;48.13;101957.94;6192541;23;20025;-62
2023/05/28 08:41:48;;;;;;;8.75;3.40;;;;;;;18.74;48.27;101956.59;6189503;23;20140;-62
2023/05/28 08:44:16;;;;;;;14.98;4.68;;;;;;;18.77;48.10;101958.81;6191623;23;20025;-62
2023/05/28 08:46:44;;;;;;;7.53;3.60;;;;;;;18.81;48.20;101959.97;6191110;23;20056;-63
2023/05/28 08:49:13;;;;;;;10.02;3.55;;;;;;;18.83;48.35;101961.38;6192662;23;20091;-63
2023/05/28 08:51:44;;;;;;;10.35;3.30;;;;;;;18.86;48.26;101954.59;6191719;23;20036;-62
2023/05/28 08:54:13;;;;;;;9.82;4.05;;;;;;;18.89;48.38;101953.28;6192350;23;20025;-62
2023/05/28 08:56:41;;;;;;;8.70;3.28;;;;;;;18.93;48.01;101955.25;6189404;23;20025;-61
2023/05/28 08:59:12;;;;;;;8.60;3.67;;;;;;;18.95;48.15;101952.28;6191039;23;20065;-63
2023/05/28 09:01:40;;;;;;;11.77;4.32;;;;;;;18.96;48.13;101951.19;6190282;23;20036;-63
2023/05/28 09:04:08;;;;;;;10.50;3.53;;;;;;;18.96;48.22;101945.75;6191148;23;20367;-62
2023/05/28 09:06:38;;;;;;;10.40;3.97;;;;;;;18.90;48.32;101939.41;6190331;23;20040;-62
2023/05/28 09:09:09;;;;;;;7.22;3.28;;;;;;;18.99;48.04;101948.81;6191459;23;20025;-62
2023/05/28 09:11:37;;;;;;;12.15;4.53;;;;;;;18.98;48.08;101944.44;6190008;23;20025;-61
2023/05/28 09:14:10;;;;;;;11.35;3.80;;;;;;;18.98;48.20;101941.72;6192053;23;20076;-62
2023/05/28 09:16:41;;;;;;;13.27;4.93;;;;;;;18.99;48.19;101937.09;6190773;23;20087;-62
2023/05/28 09:19:09;;;;;;;11.18;3.28;;;;;;;18.99;48.16;101929.72;6192762;23;20029;-62
2023/05/28 09:21:38;;;;;;;10.07;4.40;;;;;;;19.01;47.99;101943.94;6192877;23;20075;-62
2023/05/28 09:24:07;;;;;;;8.50;3.47;;;;;;;19.02;48.18;101945.56;6194905;23;20036;-62
2023/05/28 09:26:35;;;;;;;6.32;3.40;;;;;;;19.04;47.95;101940.69;6190519;23;20413;-62
2023/05/28 09:29:12;;;;;;;10.52;3.67;;;;;;;19.05;47.72;101936.06;6194597;23;20048;-64
2023/05/28 09:31:39;;;;;;;;;;;;;;;19.09;48.14;101956.25;6194080;23;20029;-62
2023/05/28 09:34:07;;;;;;;9.70;3.67;;;;;;;19.09;48.27;101937.19;6193871;23;19924;-63
2023/05/28 09:36:37;;;;;;;7.70;3.28;;;;;;;19.11;48.00;101943.22;6194219;23;20399;-63
2023/05/28 09:39:09;;;;;;;10.63;4.28;;;;;;;19.13;47.96;101941.06;6194478;23;20087;-63
2023/05/28 09:41:43;;;;;;;10.40;3.88;;;;;;;19.14;47.84;101945.44;6189806;23;20029;-63
2023/05/28 09:44:12;;;;;;;9.27;3.40;;;;;;;19.15;47.94;101937.00;6191348;23;20020;-63
2023/05/28 09:46:40;;;;;;;10.20;4.00;;;;;;;19.17;47.70;101943.03;6190085;23;20044;-61
2023/05/28 09:49:08;;;;;;;8.75;3.80;;;;;;;19.18;48.03;101941.94;6192134;23;20072;-62
2023/05/28 09:51:37;;;;;;;11.43;3.67;;;;;;;19.22;47.86;101946.91;6192918;23;20024;-63
2023/05/28 09:54:06;;;;;;;9.30;3.63;;;;;;;19.23;48.01;101938.47;6194395;23;20431;-63
2023/05/28 09:56:37;;;;;;;10.57;3.72;;;;;;;19.26;47.87;101932.50;6192295;23;20483;-63
2023/05/28 09:59:07;;;;;;;9.25;3.95;;;;;;;19.29;47.46;101934.72;6194120;23;20027;-62
2023/05/28 10:01:41;;;;;;;12.73;3.92;;;;;;;19.32;47.57;101930.66;6193025;23;20029;-63
2023/05/28 10:04:10;;;;;;;9.32;3.92;;;;;;;19.35;47.84;101931.00;6194270;23;20080;-63
2023/05/28 10:06:40;;;;;;;8.52;4.30;;;;;;;19.44;48.03;101931.38;6191522;23;20032;-62
2023/05/28 10:09:12;;;;;;;8.15;3.22;;;;;;;19.50;47.77;101928.44;6192120;23;20029;-63
2023/05/28 10:11:44;;;;;;;14.98;3.80;;;;;;;19.54;47.72;101930.69;6191691;23;20052;-63
2023/05/28 10:14:12;;;;;;;9.95;3.83;;;;;;;19.57;47.79;101933.72;6193845;23;20081;-63
2023/05/28 10:16:40;;;;;;;9.07;3.58;;;;;;;19.61;47.64;101934.06;6191767;23;20025;-65
2023/05/28 10:19:10;;;;;;;9.00;4.13;;;;;;;19.64;47.72;101942.53;6192546;23;20084;-63
2023/05/28 10:21:39;;;;;;;7.72;3.28;;;;;;;19.68;47.63;101929.22;6192546;23;20116;-62
2023/05/28 10:24:07;;;;;;;8.30;3.70;;;;;;;19.71;47.35;101932.25;6190405;23;20021;-62
2023/05/28 10:26:35;;;;;;;11.95;4.18;;;;;;;19.73;47.25;101926.53;6188869;23;20085;-62
2023/05/28 10:29:08;;;;;;;9.02;4.88;;;;;;;19.77;47.54;101925.78;6190406;23;20053;-63
2023/05/28 10:31:35;;;;;;;9.70;3.92;;;;;;;19.82;47.45;101931.28;6189409;23;20021;-64
2023/05/28 10:34:14;;;;;;;9.07;3.75;;;;;;;19.87;47.07;101927.78;6190274;23;20025;-63
2023/05/28 10:36:51;;;;;;;8.43;3.70;;;;;;;19.98;46.14;101926.81;6190975;23;20025;-64
2023/05/28 10:39:38;;;;;;;8.38;3.50;;;;;;;20.20;45.44;101918.53;6192086;23;20072;-62
2023/05/28 10:42:07;;;;;;;17.83;4.40;;;;;;;20.39;45.39;101924.47;6189146;23;20025;-63
2023/05/28 10:45:07;;;;;;;9.00;3.90;;;;;;;20.53;45.08;101922.94;6191319;23;20025;-62
2023/05/28 10:47:37;;;;;;;10.25;4.10;;;;;;;20.57;45.03;101929.53;6191095;23;20056;-63
2023/05/28 10:50:14;;;;;;;7.32;3.28;;;;;;;20.62;44.73;101928.72;6190507;23;20032;-64
2023/05/28 10:53:03;;;;;;;10.85;3.83;;;;;;;20.71;44.35;101932.63;6190773;23;20032;-65
2023/05/28 10:55:47;;;;;;;11.05;3.78;;;;;;;20.76;44.73;101943.59;6189512;23;20123;-66
2023/05/28 10:58:23;;;;;;;8.35;3.75;;;;;;;20.73;44.19;101933.19;6190706;23;20028;-67
2023/05/28 11:00:52;;;;;;;7.90;3.85;;;;;;;20.68;44.43;101936.69;6189113;23;20025;-65
2023/05/28 11:03:38;;;;;;;9.40;3.65;;;;;;;20.67;45.07;101937.78;6190927;23;20025;-64
2023/05/28 11:06:07;;;;;;;10.75;3.97;;;;;;;20.70;44.76;101931.78;6192734;23;20511;-63
2023/05/28 11:08:40;;;;;;;8.10;3.53;;;;;;;20.69;44.58;101945.72;6193864;23;20028;-63
2023/05/28 11:11:07;;;;;;;9.13;4.28;;;;;;;20.66;44.57;101932.59;6190248;23;20463;-63
2023/05/28 11:13:35;;;;;;;8.88;3.70;;;;;;;20.63;44.43;101936.66;6192534;23;20021;-65
2023/05/28 11:16:09;;;;;;;7.35;3.20;;;;;;;20.64;45.25;101932.84;6191330;23;20021;-65
2023/05/28 11:18:37;;;;;;;11.00;3.45;;;;;;;20.66;44.92;101919.75;6191238;23;20025;-63
2023/05/28 11:21:07;;;;;;;10.48;3.50;;;;;;;20.70;44.90;101928.25;6189875;23;20080;-64
2023/05/28 11:23:36;;;;;;;6.88;3.30;;;;;;;20.72;44.28;101928.81;6188312;23;20033;-63
2023/05/28 11:26:04;;;;;;;9.95;3.45;;;;;;;20.74;43.91;101921.16;6189514;23;20106;-64
2023/05/28 11:28:48;;;;;;;8.30;3.25;;;;;;;20.77;44.14;101935.13;6193207;23;20100;-64